Time;durP1;ratioP1;P1;durP2;ratioP2;P2;SDS_P1;SDS_P2;PMS_P1;PMS_P2;Temp;Humidity;BMP_temperature;BMP_pressure;BME280_temperature;BME280_humidity;BME280_pressure;Samples;Min_cycle;Max_cycle;Signal;HPM_P1;HPM_P2
2022/09/01 00:00:54;;;;;;;15.20;13.10;;;;;;;;;;5050125;28;20729;-76
2022/09/01 00:04:02;;;;;;;18.60;14.67;;;;;;;;;;5031757;28;20196;-77
2022/09/01 00:07:07;;;;;;;16.50;14.73;;;;;;;;;;5033182;28;20217;-77
2022/09/01 00:10:11;;;;;;;15.20;13.60;;;;;;;;;;5046486;28;20193;-77
2022/09/01 00:13:16;;;;;;;14.83;13.30;;;;;;;;;;5034083;28;20206;-77
2022/09/01 00:16:21;;;;;;;17.87;15.70;;;;;;;;;;5051819;28;20176;-77
2022/09/01 00:19:25;;;;;;;18.10;14.30;;;;;;;;;;5046479;28;20197;-77
2022/09/01 00:22:30;;;;;;;20.13;16.17;;;;;;;;;;5031007;28;20310;-77
2022/09/01 00:25:34;;;;;;;20.03;16.33;;;;;;;;;;5047722;28;20223;-77
2022/09/01 00:28:38;;;;;;;21.03;16.07;;;;;;;;;;5037813;28;20201;-77
2022/09/01 00:31:43;;;;;;;20.60;16.13;;;;;;;;;;5038629;28;20714;-77
2022/09/01 00:34:47;;;;;;;19.13;15.30;;;;;;;;;;5051511;28;20192;-77
2022/09/01 00:37:51;;;;;;;20.83;16.17;;;;;;;;;;5050306;28;20187;-77
2022/09/01 00:40:55;;;;;;;18.37;16.03;;;;;;;;;;5033410;28;20220;-77
2022/09/01 00:44:04;;;;;;;20.73;15.50;;;;;;;;;;5032254;28;20231;-77
2022/09/01 00:47:08;;;;;;;21.80;16.97;;;;;;;;;;5038954;28;20200;-77
2022/09/01 00:50:17;;;;;;;25.50;17.97;;;;;;;;;;5039051;28;20183;-77
2022/09/01 00:53:21;;;;;;;21.20;18.07;;;;;;;;;;5047330;28;20527;-77
2022/09/01 00:56:25;;;;;;;17.47;15.60;;;;;;;;;;5043725;28;20213;-77
2022/09/01 00:59:30;;;;;;;20.60;16.50;;;;;;;;;;5050174;28;20276;-77
2022/09/01 01:02:35;;;;;;;18.77;16.77;;;;;;;;;;5051054;28;20211;-77
2022/09/01 01:05:47;;;;;;;20.03;16.83;;;;;;;;;;5031480;28;20571;-77
2022/09/01 01:08:56;;;;;;;21.33;17.67;;;;;;;;;;5047029;28;20585;-77
2022/09/01 01:12:03;;;;;;;22.10;17.30;;;;;;;;;;5028537;28;20231;-77
2022/09/01 01:15:11;;;;;;;19.63;17.43;;;;;;;;;;5030196;28;20209;-77
2022/09/01 01:18:16;;;;;;;21.63;18.10;;;;;;;;;;5031027;28;20197;-77
2022/09/01 01:25:04;;;;;;;22.47;18.63;;;;;;;;;;5050874;28;20205;-76
2022/09/01 01:28:13;;;;;;;22.40;18.27;;;;;;;;;;5051745;28;20551;-76
2022/09/01 01:31:21;;;;;;;25.03;18.50;;;;;;;;;;5019932;28;20236;-76
2022/09/01 01:34:25;;;;;;;28.23;19.93;;;;;;;;;;5026559;28;20197;-76
2022/09/01 01:37:29;;;;;;;22.83;18.57;;;;;;;;;;5039288;28;20251;-76
2022/09/01 01:40:36;;;;;;;26.80;18.37;;;;;;;;;;5040456;28;20658;-76
2022/09/01 01:43:41;;;;;;;22.43;17.90;;;;;;;;;;5042776;28;20547;-77
2022/09/01 01:46:49;;;;;;;24.43;19.50;;;;;;;;;;5051545;28;20213;-76
2022/09/01 01:49:55;;;;;;;23.87;18.97;;;;;;;;;;5035308;28;20201;-77
2022/09/01 01:53:02;;;;;;;22.10;18.87;;;;;;;;;;5029423;28;20191;-76
2022/09/01 01:56:10;;;;;;;25.17;18.33;;;;;;;;;;5043983;28;20677;-76
2022/09/01 01:59:15;;;;;;;23.33;18.43;;;;;;;;;;5040602;28;20189;-76
2022/09/01 02:02:20;;;;;;;23.13;19.07;;;;;;;;;;5050819;28;20223;-76
2022/09/01 02:05:28;;;;;;;23.47;18.60;;;;;;;;;;5045889;28;20196;-76
2022/09/01 02:08:34;;;;;;;27.40;19.37;;;;;;;;;;5035145;28;20189;-77
2022/09/01 02:11:39;;;;;;;19.47;16.70;;;;;;;;;;5052911;28;20231;-77
2022/09/01 02:14:44;;;;;;;21.13;18.27;;;;;;;;;;5016893;28;20266;-76
2022/09/01 02:17:51;;;;;;;21.20;18.50;;;;;;;;;;5015305;28;20197;-77
2022/09/01 02:20:57;;;;;;;20.87;17.50;;;;;;;;;;4992525;28;20221;-77
2022/09/01 02:24:07;;;;;;;22.03;16.67;;;;;;;;;;5026458;28;20193;-77
2022/09/01 02:27:11;;;;;;;18.60;15.83;;;;;;;;;;5034612;28;20205;-77
2022/09/01 02:30:15;;;;;;;22.43;16.87;;;;;;;;;;5024869;28;20192;-76
2022/09/01 02:33:21;;;;;;;17.97;16.07;;;;;;;;;;5043789;28;20203;-76
2022/09/01 02:36:26;;;;;;;20.97;17.17;;;;;;;;;;5034533;23;20255;-83
2022/09/01 02:39:32;;;;;;;19.33;16.97;;;;;;;;;;5000352;28;20210;-83
2022/09/01 02:42:42;;;;;;;22.03;17.53;;;;;;;;;;5004964;28;20203;-83
2022/09/01 02:45:53;;;;;;;24.60;18.43;;;;;;;;;;4980782;28;20230;-83
2022/09/01 02:48:59;;;;;;;20.30;17.00;;;;;;;;;;4981187;28;20538;-83
2022/09/01 02:52:05;;;;;;;21.30;17.57;;;;;;;;;;4999151;28;20204;-83
2022/09/01 02:55:10;;;;;;;25.93;18.97;;;;;;;;;;4998718;28;20244;-83
2022/09/01 02:58:18;;;;;;;20.97;18.20;;;;;;;;;;5000971;28;20199;-83
2022/09/01 03:01:28;;;;;;;21.60;17.87;;;;;;;;;;4995043;28;20193;-83
2022/09/01 03:04:34;;;;;;;20.70;15.93;;;;;;;;;;4997683;28;20185;-83
2022/09/01 03:07:40;;;;;;;19.80;16.53;;;;;;;;;;5019624;28;20218;-83
2022/09/01 03:10:45;;;;;;;25.00;18.00;;;;;;;;;;5007605;28;20684;-83
2022/09/01 03:13:49;;;;;;;23.30;18.93;;;;;;;;;;4978054;28;20644;-83
2022/09/01 03:16:53;;;;;;;21.33;17.77;;;;;;;;;;4980917;28;20206;-84
2022/09/01 03:19:58;;;;;;;22.30;18.17;;;;;;;;;;4992252;28;20199;-83
2022/09/01 03:23:07;;;;;;;24.23;19.40;;;;;;;;;;5007055;28;20200;-84
2022/09/01 03:26:13;;;;;;;23.47;18.63;;;;;;;;;;4993696;28;20229;-83
2022/09/01 03:29:18;;;;;;;26.20;18.77;;;;;;;;;;5003888;28;20705;-83
2022/09/01 03:32:23;;;;;;;24.20;19.87;;;;;;;;;;5015675;28;20695;-83
2022/09/01 03:35:30;;;;;;;24.23;19.33;;;;;;;;;;5005205;28;20232;-83
2022/09/01 03:38:35;;;;;;;20.37;18.20;;;;;;;;;;5004132;28;20201;-83
2022/09/01 03:41:41;;;;;;;24.67;20.30;;;;;;;;;;4996146;28;20186;-83
2022/09/01 03:44:48;;;;;;;23.70;19.83;;;;;;;;;;4975502;28;20193;-84
2022/09/01 03:47:53;;;;;;;23.33;19.37;;;;;;;;;;4988275;28;20233;-83
2022/09/01 03:51:01;;;;;;;25.53;20.80;;;;;;;;;;4992254;28;20192;-83
2022/09/01 03:54:06;;;;;;;24.83;18.93;;;;;;;;;;5005700;28;20529;-83
2022/09/01 03:57:11;;;;;;;24.13;19.63;;;;;;;;;;5007037;28;20714;-84
2022/09/01 04:00:19;;;;;;;23.83;19.13;;;;;;;;;;4996783;28;20193;-83
2022/09/01 04:03:27;;;;;;;21.73;19.33;;;;;;;;;;4996236;28;20201;-83
2022/09/01 04:06:33;;;;;;;21.50;18.63;;;;;;;;;;5002970;28;20223;-83
2022/09/01 04:09:37;;;;;;;20.13;17.87;;;;;;;;;;4983855;28;20189;-83
2022/09/01 04:12:41;;;;;;;20.47;18.00;;;;;;;;;;4997607;28;20217;-83
2022/09/01 04:15:46;;;;;;;23.33;18.70;;;;;;;;;;4993542;28;20228;-83
2022/09/01 04:18:50;;;;;;;22.03;18.63;;;;;;;;;;4994638;28;20248;-83
2022/09/01 04:21:58;;;;;;;24.43;18.20;;;;;;;;;;4994401;28;20196;-83
2022/09/01 04:25:05;;;;;;;22.43;19.23;;;;;;;;;;4995026;28;20663;-83
2022/09/01 04:28:16;;;;;;;20.43;18.13;;;;;;;;;;4993085;28;20216;-83
2022/09/01 04:31:21;;;;;;;21.93;17.30;;;;;;;;;;5000510;28;20209;-83
2022/09/01 04:34:35;;;;;;;23.67;19.97;;;;;;;;;;4992184;28;20197;-84
2022/09/01 04:37:41;;;;;;;22.33;18.00;;;;;;;;;;4984963;28;20193;-84
2022/09/01 04:40:45;;;;;;;21.50;19.20;;;;;;;;;;4988074;28;20204;-84
2022/09/01 04:43:51;;;;;;;22.97;19.33;;;;;;;;;;5003703;28;20188;-83
2022/09/01 04:46:56;;;;;;;18.83;15.87;;;;;;;;;;4995219;28;20305;-84
2022/09/01 04:50:11;;;;;;;24.00;18.40;;;;;;;;;;4992767;28;20200;-83
2022/09/01 04:53:18;;;;;;;20.67;17.93;;;;;;;;;;4992932;28;20193;-89
2022/09/01 04:56:25;;;;;;;19.57;17.43;;;;;;;;;;4991366;28;20232;-83
2022/09/01 04:59:45;;;;;;;18.90;16.83;;;;;;;;;;4998822;28;20560;-84
2022/09/01 05:03:03;;;;;;;21.53;17.60;;;;;;;;;;4991682;28;20196;-84
2022/09/01 05:06:17;;;;;;;21.53;16.50;;;;;;;;;;4987574;28;20233;-85
2022/09/01 05:09:37;;;;;;;20.10;16.63;;;;;;;;;;4980441;28;20193;-84
2022/09/01 05:13:00;;;;;;;19.70;17.60;;;;;;;;;;5001738;28;20679;-84
2022/09/01 05:16:11;;;;;;;19.70;17.60;;;;;;;;;;5002151;28;20227;-84
2022/09/01 05:19:19;;;;;;;20.73;18.37;;;;;;;;;;4988444;28;20193;-84
2022/09/01 05:22:25;;;;;;;23.43;17.27;;;;;;;;;;4987289;28;20557;-83
2022/09/01 05:25:42;;;;;;;22.43;17.80;;;;;;;;;;4986658;28;20224;-83
2022/09/01 05:28:49;;;;;;;19.43;16.03;;;;;;;;;;4990417;28;20229;-83
2022/09/01 05:31:55;;;;;;;18.63;16.03;;;;;;;;;;4987809;28;20201;-83
2022/09/01 05:35:00;;;;;;;20.67;16.33;;;;;;;;;;4975573;28;20209;-84
2022/09/01 05:38:09;;;;;;;19.80;17.03;;;;;;;;;;4975655;28;20181;-84
2022/09/01 05:41:16;;;;;;;18.70;16.70;;;;;;;;;;4986613;28;20185;-84
2022/09/01 05:44:21;;;;;;;19.63;16.90;;;;;;;;;;4975472;28;20262;-84
2022/09/01 05:47:27;;;;;;;20.10;16.17;;;;;;;;;;4974939;28;20217;-84
2022/09/01 05:50:32;;;;;;;24.60;17.80;;;;;;;;;;4975548;28;20185;-84
2022/09/01 05:53:37;;;;;;;22.47;17.57;;;;;;;;;;4976135;28;20197;-84
2022/09/01 05:56:44;;;;;;;19.17;17.17;;;;;;;;;;4976411;28;20229;-84
2022/09/01 05:59:56;;;;;;;20.07;17.83;;;;;;;;;;4976318;28;20186;-84
2022/09/01 06:03:05;;;;;;;23.47;18.30;;;;;;;;;;4974985;28;20189;-84
2022/09/01 06:06:11;;;;;;;22.47;17.53;;;;;;;;;;4996180;28;20224;-84
2022/09/01 06:09:17;;;;;;;20.37;16.67;;;;;;;;;;4994415;28;20220;-84
2022/09/01 06:12:23;;;;;;;19.23;16.13;;;;;;;;;;5016608;28;20560;-84
2022/09/01 06:15:29;;;;;;;19.37;15.90;;;;;;;;;;5005822;28;20220;-84
2022/09/01 06:18:35;;;;;;;20.20;16.77;;;;;;;;;;4974952;28;20564;-84
2022/09/01 06:21:39;;;;;;;18.50;15.00;;;;;;;;;;5000969;28;20205;-84
2022/09/01 06:24:47;;;;;;;19.87;15.47;;;;;;;;;;4993838;28;20184;-84
2022/09/01 06:27:52;;;;;;;16.33;14.63;;;;;;;;;;4993651;28;20232;-84
2022/09/01 06:30:57;;;;;;;16.47;14.73;;;;;;;;;;4989685;28;20216;-84
2022/09/01 06:34:02;;;;;;;17.50;15.67;;;;;;;;;;5005289;28;20185;-84
2022/09/01 06:37:06;;;;;;;18.43;15.50;;;;;;;;;;5015980;28;20722;-84
2022/09/01 06:40:16;;;;;;;15.30;13.70;;;;;;;;;;4994066;28;20204;-84
2022/09/01 06:43:21;;;;;;;16.80;15.00;;;;;;;;;;4994296;28;20189;-84
2022/09/01 06:46:28;;;;;;;15.80;14.10;;;;;;;;;;5005160;28;20220;-84
2022/09/01 06:49:37;;;;;;;15.43;13.77;;;;;;;;;;4994578;28;20189;-84
2022/09/01 06:52:49;;;;;;;15.93;14.23;;;;;;;;;;4994705;28;20189;-84
2022/09/01 06:55:55;;;;;;;16.13;14.30;;;;;;;;;;5004906;28;20247;-84
2022/09/01 06:59:04;;;;;;;17.07;14.27;;;;;;;;;;4984610;28;20186;-84
2022/09/01 07:02:08;;;;;;;18.47;14.00;;;;;;;;;;4991840;28;20201;-84
2022/09/01 07:05:34;;;;;;;16.60;14.20;;;;;;;;;;4988877;28;20720;-84
2022/09/01 07:08:40;;;;;;;17.80;13.10;;;;;;;;;;4973424;28;20221;-84
2022/09/01 07:11:55;;;;;;;13.73;12.40;;;;;;;;;;4984889;28;20197;-84
2022/09/01 07:15:00;;;;;;;19.97;14.23;;;;;;;;;;4984822;28;20185;-83
2022/09/01 07:18:05;;;;;;;15.90;13.70;;;;;;;;;;4989814;28;20662;-84
2022/09/01 07:21:10;;;;;;;14.33;12.80;;;;;;;;;;4993491;28;20185;-83
2022/09/01 07:24:17;;;;;;;14.20;12.17;;;;;;;;;;4992777;28;20185;-83
2022/09/01 07:27:49;;;;;;;12.93;11.63;;;;;;;;;;4986993;28;20221;-83
2022/09/01 07:30:53;;;;;;;12.37;11.07;;;;;;;;;;4977110;28;20205;-84
2022/09/01 07:34:03;;;;;;;14.07;12.60;;;;;;;;;;4973416;28;20209;-83
2022/09/01 07:37:07;;;;;;;14.87;12.03;;;;;;;;;;4992109;28;20236;-83
2022/09/01 07:40:19;;;;;;;13.70;12.33;;;;;;;;;;4983195;28;20193;-83
2022/09/01 07:43:55;;;;;;;16.77;12.37;;;;;;;;;;5004663;28;20683;-83
2022/09/01 07:47:00;;;;;;;13.30;10.97;;;;;;;;;;5003289;28;20608;-83
2022/09/01 07:50:07;;;;;;;13.20;11.00;;;;;;;;;;4992095;28;20185;-83
2022/09/01 07:53:11;;;;;;;15.37;11.33;;;;;;;;;;4972717;28;20189;-83
2022/09/01 07:56:19;;;;;;;14.10;11.23;;;;;;;;;;4972283;28;20229;-83
2022/09/01 07:59:27;;;;;;;11.33;10.10;;;;;;;;;;4972202;28;20185;-83
2022/09/01 08:02:42;;;;;;;11.47;10.00;;;;;;;;;;4973455;28;20185;-83
2022/09/01 08:05:50;;;;;;;10.70;8.67;;;;;;;;;;4983547;28;20224;-83
2022/09/01 08:08:57;;;;;;;13.40;9.67;;;;;;;;;;4982864;28;20222;-83
2022/09/01 08:12:04;;;;;;;10.93;9.60;;;;;;;;;;4983237;28;20194;-83
2022/09/01 08:15:11;;;;;;;12.53;9.73;;;;;;;;;;4979662;28;20704;-83
2022/09/01 08:18:15;;;;;;;13.23;9.83;;;;;;;;;;5001496;28;20676;-83
2022/09/01 08:21:22;;;;;;;9.67;8.47;;;;;;;;;;4981702;28;20668;-83
2022/09/01 08:24:52;;;;;;;16.07;8.20;;;;;;;;;;4999906;28;20201;-83
2022/09/01 08:27:56;;;;;;;9.63;8.63;;;;;;;;;;4986847;28;20201;-84
2022/09/01 08:31:06;;;;;;;7.93;7.23;;;;;;;;;;4982989;28;20186;-84
2022/09/01 08:34:11;;;;;;;9.97;7.80;;;;;;;;;;4974850;28;20182;-85
2022/09/01 08:37:16;;;;;;;9.43;7.60;;;;;;;;;;4986457;28;20214;-82
2022/09/01 08:40:22;;;;;;;8.97;7.50;;;;;;;;;;4984739;28;20177;-82
2022/09/01 08:43:32;;;;;;;9.13;7.53;;;;;;;;;;5003692;28;20190;-82
2022/09/01 08:46:41;;;;;;;7.97;7.20;;;;;;;;;;5006818;28;20217;-83
2022/09/01 08:49:48;;;;;;;11.90;7.70;;;;;;;;;;4998751;28;20210;-83
2022/09/01 08:53:30;;;;;;;8.10;7.13;;;;;;;;;;5005085;28;20185;-83
2022/09/01 08:56:36;;;;;;;8.20;6.80;;;;;;;;;;4998277;28;20684;-83
2022/09/01 08:59:41;;;;;;;9.70;7.67;;;;;;;;;;5009271;28;20197;-83
2022/09/01 09:03:05;;;;;;;10.40;7.73;;;;;;;;;;4998958;28;20185;-83
2022/09/01 09:06:20;;;;;;;7.77;6.90;;;;;;;;;;5008401;28;20700;-82
2022/09/01 09:09:40;;;;;;;10.30;8.10;;;;;;;;;;5008092;28;20221;-82
2022/09/01 09:12:51;;;;;;;8.33;7.53;;;;;;;;;;4984936;28;20198;-82
2022/09/01 09:16:01;;;;;;;9.27;7.87;;;;;;;;;;5007697;28;20221;-82
2022/09/01 09:19:27;;;;;;;9.53;8.27;;;;;;;;;;5006707;28;20197;-82
2022/09/01 09:22:31;;;;;;;8.77;7.67;;;;;;;;;;5017117;28;20182;-82
2022/09/01 09:25:36;;;;;;;9.37;7.47;;;;;;;;;;5005781;28;20213;-82
2022/09/01 09:28:40;;;;;;;8.13;7.33;;;;;;;;;;5004900;28;20209;-82
2022/09/01 09:31:50;;;;;;;7.93;7.13;;;;;;;;;;4994040;28;20177;-82
2022/09/01 09:34:54;;;;;;;8.50;7.60;;;;;;;;;;5003274;28;20366;-82
2022/09/01 09:38:27;;;;;;;6.87;6.17;;;;;;;;;;5002958;28;20182;-82
2022/09/01 09:41:32;;;;;;;7.97;6.13;;;;;;;;;;4991490;28;20177;-82
2022/09/01 09:44:47;;;;;;;6.50;4.80;;;;;;;;;;4991334;28;20181;-82
2022/09/01 09:47:53;;;;;;;4.93;4.40;;;;;;;;;;5004424;28;20198;-82
2022/09/01 09:51:20;;;;;;;5.00;3.83;;;;;;;;;;4996376;28;20198;-82
2022/09/01 09:54:30;;;;;;;3.83;3.53;;;;;;;;;;4987516;28;20205;-82
2022/09/01 09:57:38;;;;;;;5.20;4.30;;;;;;;;;;4990855;28;20181;-82
2022/09/01 10:01:01;;;;;;;3.33;3.03;;;;;;;;;;5001918;28;20182;-82
2022/09/01 10:04:06;;;;;;;4.13;3.60;;;;;;;;;;4992322;28;20190;-82
2022/09/01 10:07:29;;;;;;;4.27;3.70;;;;;;;;;;5016876;28;20216;-82
2022/09/01 10:10:43;;;;;;;4.50;3.10;;;;;;;;;;4986296;28;20206;-82
2022/09/01 10:13:47;;;;;;;8.97;4.37;;;;;;;;;;4975307;28;20178;-83
2022/09/01 10:16:57;;;;;;;3.60;3.30;;;;;;;;;;4974837;28;20565;-83
2022/09/01 10:20:10;;;;;;;5.43;3.60;;;;;;;;;;4975328;28;20178;-82
2022/09/01 10:23:14;;;;;;;3.77;3.47;;;;;;;;;;4990355;28;20213;-83
2022/09/01 10:26:24;;;;;;;4.67;3.20;;;;;;;;;;5016029;28;20221;-83
2022/09/01 10:29:49;;;;;;;4.53;3.90;;;;;;;;;;5016378;28;20214;-83
2022/09/01 10:32:57;;;;;;;2.50;2.30;;;;;;;;;;5004728;28;20182;-82
2022/09/01 10:36:01;;;;;;;3.27;2.90;;;;;;;;;;5004441;28;20224;-83
2022/09/01 10:39:10;;;;;;;3.80;3.40;;;;;;;;;;4993937;28;20177;-83
2022/09/01 10:42:18;;;;;;;3.20;2.90;;;;;;;;;;4992479;28;20214;-83
2022/09/01 10:45:36;;;;;;;3.97;3.40;;;;;;;;;;4985145;28;20221;-82
2022/09/01 10:48:42;;;;;;;3.90;2.93;;;;;;;;;;4995997;28;20538;-82
2022/09/01 10:51:47;;;;;;;14.60;3.90;;;;;;;;;;4980682;28;20210;-82
2022/09/01 10:54:56;;;;;;;6.63;3.47;;;;;;;;;;4984685;28;20194;-82
2022/09/01 10:58:18;;;;;;;4.63;3.20;;;;;;;;;;4985107;28;20507;-82
2022/09/01 11:01:41;;;;;;;3.40;2.90;;;;;;;;;;4984959;28;20178;-82
2022/09/01 11:04:45;;;;;;;4.17;2.90;;;;;;;;;;4984594;28;20186;-82
2022/09/01 11:07:49;;;;;;;4.87;3.03;;;;;;;;;;4973736;28;20542;-83
2022/09/01 11:11:04;;;;;;;3.60;3.20;;;;;;;;;;4973310;28;20174;-82
2022/09/01 11:14:28;;;;;;;3.33;2.80;;;;;;;;;;4983961;28;20182;-82
2022/09/01 11:17:36;;;;;;;3.53;2.77;;;;;;;;;;4973747;28;20186;-83
2022/09/01 11:20:43;;;;;;;3.77;2.77;;;;;;;;;;4989239;28;20197;-83
2022/09/01 11:23:47;;;;;;;2.53;2.33;;;;;;;;;;4991844;28;20193;-83
2022/09/01 11:26:51;;;;;;;4.07;2.47;;;;;;;;;;5014578;28;20697;-82
2022/09/01 11:30:00;;;;;;;4.37;2.67;;;;;;;;;;4992754;28;20219;-83
2022/09/01 11:33:12;;;;;;;3.50;2.20;;;;;;;;;;5003789;28;20188;-83
2022/09/01 11:36:27;;;;;;;5.97;2.80;;;;;;;;;;4992042;28;20576;-82
2022/09/01 11:39:40;;;;;;;5.70;3.20;;;;;;;;;;5004077;28;20185;-84
2022/09/01 11:42:44;;;;;;;3.70;2.50;;;;;;;;;;4991765;28;20186;-83
2022/09/01 11:46:11;;;;;;;39.10;4.53;;;;;;;;;;5003207;28;20218;-83
2022/09/01 11:49:34;;;;;;;2.50;2.30;;;;;;;;;;4992167;28;20214;-83
2022/09/01 11:52:40;;;;;;;2.33;2.13;;;;;;;;;;4991631;28;20184;-83
2022/09/01 11:55:50;;;;;;;4.73;2.60;;;;;;;;;;4992491;28;20219;-83
2022/09/01 11:58:54;;;;;;;2.97;2.23;;;;;;;;;;5014657;28;20202;-83
2022/09/01 12:01:58;;;;;;;3.23;2.60;;;;;;;;;;4991833;28;20633;-83
2022/09/01 12:05:25;;;;;;;2.77;2.20;;;;;;;;;;5003358;28;20178;-83
2022/09/01 12:08:32;;;;;;;2.60;2.40;;;;;;;;;;5013662;28;20182;-84
2022/09/01 12:11:40;;;;;;;2.73;2.07;;;;;;;;;;5002795;28;20169;-83
2022/09/01 12:14:55;;;;;;;2.67;2.00;;;;;;;;;;5002192;28;20182;-84
2022/09/01 12:22:26;;;;;;;2.60;2.37;;;;;;;;;;5014513;28;20177;-84
2022/09/01 12:25:33;;;;;;;4.13;2.50;;;;;;;;;;4992295;28;20224;-83
2022/09/01 12:28:40;;;;;;;3.87;2.40;;;;;;;;;;5014990;28;20656;-83
2022/09/01 12:31:47;;;;;;;3.10;2.03;;;;;;;;;;5002561;28;20529;-83
2022/09/01 12:35:03;;;;;;;2.80;2.10;;;;;;;;;;5014265;28;20180;-83
2022/09/01 12:38:27;;;;;;;1.93;1.83;;;;;;;;;;5002798;28;20192;-83
2022/09/01 12:41:37;;;;;;;3.43;2.13;;;;;;;;;;4991662;28;20182;-83
2022/09/01 12:44:46;;;;;;;1.70;1.60;;;;;;;;;;4992324;28;20183;-83
2022/09/01 12:47:50;;;;;;;3.93;2.10;;;;;;;;;;5002884;28;20185;-83
2022/09/01 12:50:55;;;;;;;2.27;1.90;;;;;;;;;;5014993;28;20220;-83
2022/09/01 12:53:59;;;;;;;3.43;1.87;;;;;;;;;;5002813;28;20189;-83
2022/09/01 12:57:04;;;;;;;2.37;1.90;;;;;;;;;;4991395;28;20239;-82
2022/09/01 13:00:19;;;;;;;4.00;1.73;;;;;;;;;;4991471;28;20174;-83
2022/09/01 13:03:26;;;;;;;3.30;1.80;;;;;;;;;;4991369;28;20636;-83
2022/09/01 13:06:30;;;;;;;6.03;2.20;;;;;;;;;;5002357;28;20223;-83
2022/09/01 13:09:34;;;;;;;1.70;1.53;;;;;;;;;;5002375;28;20218;-83
2022/09/01 13:12:41;;;;;;;2.13;1.80;;;;;;;;;;5013242;28;20183;-83
2022/09/01 13:15:52;;;;;;;3.90;1.60;;;;;;;;;;5019566;22;20235;-84
2022/09/01 13:18:56;;;;;;;3.50;1.47;;;;;;;;;;4997168;28;20194;-84
2022/09/01 13:22:00;;;;;;;7.40;1.83;;;;;;;;;;4996501;28;20183;-83
2022/09/01 13:25:05;;;;;;;1.63;1.30;;;;;;;;;;4996240;28;20219;-84
2022/09/01 13:28:10;;;;;;;5.67;1.70;;;;;;;;;;5006988;28;20182;-84
2022/09/01 13:31:14;;;;;;;13.00;2.10;;;;;;;;;;4985425;28;20213;-83
2022/09/01 13:34:19;;;;;;;4.73;1.73;;;;;;;;;;5008538;28;20530;-83
2022/09/01 13:37:23;;;;;;;1.77;1.40;;;;;;;;;;4996268;28;20212;-83
2022/09/01 13:40:27;;;;;;;3.00;1.73;;;;;;;;;;4988487;28;20201;-84
2022/09/01 13:43:33;;;;;;;2.57;1.77;;;;;;;;;;4999824;28;20527;-84
2022/09/01 13:46:37;;;;;;;6.40;2.03;;;;;;;;;;4988180;28;20558;-83
2022/09/01 13:49:41;;;;;;;2.60;1.53;;;;;;;;;;5011061;28;20202;-84
2022/09/01 13:52:49;;;;;;;4.50;1.50;;;;;;;;;;4986071;28;20179;-85
2022/09/01 13:55:54;;;;;;;3.47;1.50;;;;;;;;;;4985853;28;20218;-85
2022/09/01 13:58:58;;;;;;;3.05;1.45;;;;;;;;;;4986191;28;20183;-85
2022/09/01 14:02:03;;;;;;;2.00;1.35;;;;;;;;;;4986083;28;20175;-85
2022/09/01 14:05:08;;;;;;;2.50;1.48;;;;;;;;;;4985609;28;20223;-85
2022/09/01 14:08:15;;;;;;;2.80;1.63;;;;;;;;;;4985817;28;20524;-85
2022/09/01 14:11:19;;;;;;;2.90;1.50;;;;;;;;;;4985377;28;20205;-85
2022/09/01 14:14:24;;;;;;;10.32;1.38;;;;;;;;;;4996500;28;20192;-85
2022/09/01 14:17:28;;;;;;;6.68;1.58;;;;;;;;;;4985358;28;20197;-85
2022/09/01 14:20:38;;;;;;;1.30;1.20;;;;;;;;;;4996376;28;20518;-85
2022/09/01 14:23:45;;;;;;;2.65;1.20;;;;;;;;;;4985413;28;20185;-85
2022/09/01 14:26:49;;;;;;;6.82;1.38;;;;;;;;;;4984758;28;20217;-85
2022/09/01 14:29:53;;;;;;;5.95;2.90;;;;;;;;;;4985092;28;20233;-85
2022/09/01 14:33:00;;;;;;;2.88;1.40;;;;;;;;;;5007415;28;20203;-86
2022/09/01 14:36:05;;;;;;;1.80;1.50;;;;;;;;;;5007010;28;20558;-87
2022/09/01 14:39:10;;;;;;;8.32;1.50;;;;;;;;;;4997088;28;20179;-85
2022/09/01 14:42:14;;;;;;;2.90;1.30;;;;;;;;;;4996790;28;20178;-85
2022/09/01 14:45:24;;;;;;;6.20;1.33;;;;;;;;;;4996387;28;20224;-84
2022/09/01 14:48:28;;;;;;;1.80;1.30;;;;;;;;;;4996262;28;20201;-84
2022/09/01 14:51:33;;;;;;;2.13;1.50;;;;;;;;;;4984907;28;20208;-85
2022/09/01 14:54:39;;;;;;;1.90;1.33;;;;;;;;;;4973854;28;20188;-86
2022/09/01 14:57:43;;;;;;;2.28;1.13;;;;;;;;;;4984659;28;20185;-84
2022/09/01 15:00:47;;;;;;;82.43;7.37;;;;;;;;;;4984875;28;20646;-85
2022/09/01 15:03:52;;;;;;;2.73;1.30;;;;;;;;;;4995997;28;20184;-85
2022/09/01 15:06:56;;;;;;;1.97;1.30;;;;;;;;;;4996608;28;20189;-84
2022/09/01 15:10:00;;;;;;;1.47;1.37;;;;;;;;;;4985208;28;20215;-85
2022/09/01 15:13:04;;;;;;;1.50;1.40;;;;;;;;;;5007841;28;20186;-88
2022/09/01 15:16:14;;;;;;;4.90;1.80;;;;;;;;;;4984658;28;20226;-87
2022/09/01 15:19:19;;;;;;;5.10;1.47;;;;;;;;;;4984986;28;20200;-85
2022/09/01 15:22:23;;;;;;;10.37;2.33;;;;;;;;;;4996998;28;20182;-85
2022/09/01 15:25:27;;;;;;;2.40;1.50;;;;;;;;;;4984669;28;20217;-85
2022/09/01 15:28:31;;;;;;;3.27;1.40;;;;;;;;;;4973840;28;20178;-85
2022/09/01 15:31:35;;;;;;;2.27;1.50;;;;;;;;;;4984755;28;20226;-87
2022/09/01 15:34:40;;;;;;;5.83;1.37;;;;;;;;;;4984606;28;20190;-85
2022/09/01 15:37:49;;;;;;;8.40;2.03;;;;;;;;;;4996178;28;20186;-85
2022/09/01 15:40:54;;;;;;;2.70;1.53;;;;;;;;;;5007055;28;20174;-84
2022/09/01 15:44:00;;;;;;;4.00;1.40;;;;;;;;;;4983790;28;20187;-83
2022/09/01 15:47:05;;;;;;;4.03;1.63;;;;;;;;;;4983842;28;20626;-84
2022/09/01 15:50:11;;;;;;;2.20;1.30;;;;;;;;;;5006909;28;20182;-86
2022/09/01 15:53:15;;;;;;;2.83;1.30;;;;;;;;;;4995933;28;20510;-85
2022/09/01 15:56:20;;;;;;;22.10;2.53;;;;;;;;;;5006187;28;20214;-85
2022/09/01 15:59:24;;;;;;;10.60;1.80;;;;;;;;;;4973359;28;20190;-86
2022/09/01 16:02:28;;;;;;;5.90;2.00;;;;;;;;;;4984445;28;20178;-86
2022/09/01 16:05:35;;;;;;;6.80;1.50;;;;;;;;;;5007165;28;20213;-85
2022/09/01 16:08:40;;;;;;;3.50;1.80;;;;;;;;;;4986011;28;20534;-85
2022/09/01 16:11:44;;;;;;;3.37;1.60;;;;;;;;;;4983886;28;20546;-84
2022/09/01 16:14:49;;;;;;;1.83;1.40;;;;;;;;;;4994825;28;20198;-84
2022/09/01 16:18:14;;;;;;;3.07;1.60;;;;;;;;;;4983857;28;20305;-85
2022/09/01 16:21:34;;;;;;;5.17;1.67;;;;;;;;;;4972572;28;20178;-85
2022/09/01 16:24:45;;;;;;;5.40;1.57;;;;;;;;;;4983664;28;20195;-85
2022/09/01 16:27:49;;;;;;;5.07;1.57;;;;;;;;;;5006054;28;20515;-84
2022/09/01 16:31:01;;;;;;;8.80;2.00;;;;;;;;;;4983606;28;20205;-84
2022/09/01 16:34:15;;;;;;;2.40;1.40;;;;;;;;;;4983611;28;20186;-85
2022/09/01 16:38:03;;;;;;;2.40;1.40;;;;;;;;;;4984315;28;20178;-85
2022/09/01 16:41:35;;;;;;;6.40;1.33;;;;;;;;;;4994570;28;20204;-85
2022/09/01 16:44:45;;;;;;;9.17;1.40;;;;;;;;;;4972857;28;20178;-84
2022/09/01 16:48:14;;;;;;;8.17;1.87;;;;;;;;;;4984037;28;20190;-85
2022/09/01 16:51:28;;;;;;;4.90;1.50;;;;;;;;;;4982642;28;20680;-84
2022/09/01 16:54:57;;;;;;;5.20;1.30;;;;;;;;;;5006041;28;20182;-85
2022/09/01 16:58:37;;;;;;;2.70;1.47;;;;;;;;;;4973526;28;20182;-85
2022/09/01 17:01:46;;;;;;;2.37;1.27;;;;;;;;;;4972107;28;20198;-85
2022/09/01 17:05:13;;;;;;;3.10;1.33;;;;;;;;;;4971915;28;20870;-84
2022/09/01 17:08:22;;;;;;;3.27;1.23;;;;;;;;;;4982928;28;20190;-85
2022/09/01 17:11:51;;;;;;;2.33;1.20;;;;;;;;;;4982725;28;20214;-85
2022/09/01 17:15:08;;;;;;;2.67;1.40;;;;;;;;;;4997872;28;20217;-84
2022/09/01 17:18:20;;;;;;;2.03;0.97;;;;;;;;;;5009193;28;20187;-85
2022/09/01 17:21:48;;;;;;;1.70;1.30;;;;;;;;;;4998690;28;20186;-86
2022/09/01 17:25:20;;;;;;;1.20;1.10;;;;;;;;;;4997906;28;20221;-84
2022/09/01 17:28:50;;;;;;;2.17;1.37;;;;;;;;;;4987570;28;20182;-85
2022/09/01 17:32:03;;;;;;;1.33;1.20;;;;;;;;;;4987175;28;20205;-86
2022/09/01 17:35:34;;;;;;;1.77;1.20;;;;;;;;;;4998574;28;20214;-85
2022/09/01 17:39:02;;;;;;;1.80;1.47;;;;;;;;;;4987268;28;20174;-85
2022/09/01 17:42:32;;;;;;;1.57;1.30;;;;;;;;;;4986860;28;20178;-85
2022/09/01 17:45:46;;;;;;;12.33;2.00;;;;;;;;;;4986527;28;20217;-85
2022/09/01 17:49:01;;;;;;;4.63;1.70;;;;;;;;;;4997916;28;20187;-85
2022/09/01 17:52:20;;;;;;;6.13;2.10;;;;;;;;;;4987264;28;20222;-85
2022/09/01 17:55:44;;;;;;;2.97;1.73;;;;;;;;;;4987551;28;20213;-85
2022/09/01 17:59:00;;;;;;;3.63;1.67;;;;;;;;;;5009190;28;20187;-85
2022/09/01 18:02:45;;;;;;;5.07;2.20;;;;;;;;;;4987255;28;20178;-85
2022/09/01 18:05:54;;;;;;;2.43;1.47;;;;;;;;;;4986923;28;20562;-84
2022/09/01 18:08:59;;;;;;;1.40;1.30;;;;;;;;;;4986662;28;20194;-85
2022/09/01 18:12:08;;;;;;;2.53;1.57;;;;;;;;;;4986619;28;20206;-84
2022/09/01 18:15:18;;;;;;;2.10;1.63;;;;;;;;;;5008808;28;20566;-86
2022/09/01 18:18:30;;;;;;;3.93;2.00;;;;;;;;;;4986716;28;20618;-85
2022/09/01 18:21:38;;;;;;;2.40;1.90;;;;;;;;;;4976149;28;20194;-84
2022/09/01 18:24:46;;;;;;;5.50;2.00;;;;;;;;;;4998506;28;20198;-85
2022/09/01 18:27:50;;;;;;;1.90;1.80;;;;;;;;;;4989504;28;20182;-86
2022/09/01 18:31:19;;;;;;;2.67;1.97;;;;;;;;;;4986574;28;20178;-86
2022/09/01 18:34:32;;;;;;;1.73;1.60;;;;;;;;;;4986613;28;20186;-85
2022/09/01 18:37:36;;;;;;;2.17;1.70;;;;;;;;;;4986572;28;20190;-85
2022/09/01 18:40:46;;;;;;;3.33;1.80;;;;;;;;;;4986870;28;20198;-85
2022/09/01 18:44:03;;;;;;;1.90;1.70;;;;;;;;;;5008979;28;20297;-87
2022/09/01 18:47:11;;;;;;;2.60;1.90;;;;;;;;;;4984440;28;20202;-87